Palmers Lookout, Australia
Current Conditions -  °F | °C
As of 8:30 AM on Saturday 01 Nov 2014 (Local Time) from YMHB Reporting Station
Scattered Clouds Scattered Clouds  
Wind Chill: 57°   Ceiling: Unl
Heat Index: 57°   Visibility: 6mi
Dew Point: 39°   Wind: 20mph
Humidity: 51%   Direction: 260°W
Pressure: 29.26"   Gusts: NA
Location:  43.17°S, 147.83°E
Report Text: YMHB 312130Z 26017KT 9999 SCT040 SCT190 14/04 Q0991
Loading
Personal Weather Stations






























Interactive Weather Map
Tropical Storm Tracking
New forecast layout! Learn more

10-Day Weather Forecast

Advertisements
Track Severe Weather on mobile